Burgas, Bulgaria
Current Conditions -  °F | °C
As of 10:30 PM on Thursday 27 Nov 2014 (Local Time) from LBBG Reporting Station
Overcast Overcast  
Wind Chill: 30°   Ceiling: 1700
Heat Index: 34°   Visibility: 6mi
Dew Point: 30°   Wind: 4mph
Humidity: 87%   Direction: 30°NNE
Pressure: 30.27"   Gusts: NA
Location:  42.51°N, 27.47°E
Report Text: LBBG 271930Z 03002MPS 9999 OVC017 01/M01 Q1025 NOSIG
Loading
Personal Weather Stations






























Interactive Weather Map New forecast layout! Learn more

10-Day Weather Forecast

Advertisements
Track Severe Weather on mobile